sensor_id;sensor_type;location;lat;lon;timestamp;temperature;humidity
4223;DHT22;2125;51.436;14.138;2024-02-23T12:33:26;10.80;68.50
4223;DHT22;2125;51.436;14.138;2024-02-23T12:35:54;10.90;68.30
4223;DHT22;2125;51.436;14.138;2024-02-23T12:38:21;10.90;68.80
4223;DHT22;2125;51.436;14.138;2024-02-23T12:40:48;10.90;69.20
4223;DHT22;2125;51.436;14.138;2024-02-23T12:43:15;10.90;69.10
4223;DHT22;2125;51.436;14.138;2024-02-23T12:45:42;10.90;67.20
4223;DHT22;2125;51.436;14.138;2024-02-23T12:48:10;11.10;72.30
4223;DHT22;2125;51.436;14.138;2024-02-23T12:50:39;11.20;68.70
4223;DHT22;2125;51.436;14.138;2024-02-23T12:53:06;11.10;66.00
4223;DHT22;2125;51.436;14.138;2024-02-23T12:55:32;11.00;67.10
4223;DHT22;2125;51.436;14.138;2024-02-23T12:57:59;11.00;66.50
4223;DHT22;2125;51.436;14.138;2024-02-23T13:00:26;10.90;68.40
4223;DHT22;2125;51.436;14.138;2024-02-23T13:02:53;10.90;69.10
4223;DHT22;2125;51.436;14.138;2024-02-23T13:05:20;10.80;67.00
4223;DHT22;2125;51.436;14.138;2024-02-23T13:07:48;10.70;64.50
4223;DHT22;2125;51.436;14.138;2024-02-23T13:10:15;10.70;65.90
4223;DHT22;2125;51.436;14.138;2024-02-23T13:12:44;10.60;65.00
4223;DHT22;2125;51.436;14.138;2024-02-23T13:15:11;10.60;66.10
4223;DHT22;2125;51.436;14.138;2024-02-23T13:17:38;10.60;67.10
4223;DHT22;2125;51.436;14.138;2024-02-23T13:20:06;10.60;66.80
4223;DHT22;2125;51.436;14.138;2024-02-23T13:22:36;10.40;65.00
4223;DHT22;2125;51.436;14.138;2024-02-23T13:25:05;10.30;64.20
4223;DHT22;2125;51.436;14.138;2024-02-23T13:27:32;10.30;63.30
4223;DHT22;2125;51.436;14.138;2024-02-23T13:29:59;10.30;61.50
4223;DHT22;2125;51.436;14.138;2024-02-23T13:32:25;10.40;63.20
4223;DHT22;2125;51.436;14.138;2024-02-23T13:34:53;10.50;61.30
4223;DHT22;2125;51.436;14.138;2024-02-23T13:37:19;10.60;66.90
4223;DHT22;2125;51.436;14.138;2024-02-23T13:39:46;10.50;63.90
4223;DHT22;2125;51.436;14.138;2024-02-23T13:42:15;10.50;63.50
4223;DHT22;2125;51.436;14.138;2024-02-23T13:44:42;10.60;65.40
4223;DHT22;2125;51.436;14.138;2024-02-23T13:47:11;10.60;66.30
4223;DHT22;2125;51.436;14.138;2024-02-23T13:49:38;10.60;67.60
4223;DHT22;2125;51.436;14.138;2024-02-23T13:52:06;10.70;64.90
4223;DHT22;2125;51.436;14.138;2024-02-23T13:54:33;10.60;64.90
4223;DHT22;2125;51.436;14.138;2024-02-23T13:57:03;10.60;66.40
4223;DHT22;2125;51.436;14.138;2024-02-23T13:59:31;10.60;66.40
4223;DHT22;2125;51.436;14.138;2024-02-23T14:01:58;10.70;65.10
4223;DHT22;2125;51.436;14.138;2024-02-23T14:04:25;10.70;64.90
4223;DHT22;2125;51.436;14.138;2024-02-23T14:06:52;10.70;64.90
4223;DHT22;2125;51.436;14.138;2024-02-23T14:09:19;10.70;62.70
4223;DHT22;2125;51.436;14.138;2024-02-23T14:11:46;10.60;64.70
4223;DHT22;2125;51.436;14.138;2024-02-23T14:14:13;10.40;65.30
4223;DHT22;2125;51.436;14.138;2024-02-23T14:16:41;10.40;64.90
4223;DHT22;2125;51.436;14.138;2024-02-23T14:19:08;10.30;63.80
4223;DHT22;2125;51.436;14.138;2024-02-23T14:21:35;10.30;65.20
4223;DHT22;2125;51.436;14.138;2024-02-23T14:24:06;10.40;66.00
4223;DHT22;2125;51.436;14.138;2024-02-23T14:26:34;10.40;66.10
4223;DHT22;2125;51.436;14.138;2024-02-23T14:29:01;10.40;64.50
4223;DHT22;2125;51.436;14.138;2024-02-23T14:31:28;10.40;65.20
4223;DHT22;2125;51.436;14.138;2024-02-23T14:33:56;10.40;63.70
4223;DHT22;2125;51.436;14.138;2024-02-23T14:36:23;10.50;64.40
4223;DHT22;2125;51.436;14.138;2024-02-23T14:38:50;10.40;64.50
4223;DHT22;2125;51.436;14.138;2024-02-23T14:41:17;10.30;65.00
4223;DHT22;2125;51.436;14.138;2024-02-23T14:43:44;10.20;66.60
4223;DHT22;2125;51.436;14.138;2024-02-23T14:46:11;10.20;65.90
4223;DHT22;2125;51.436;14.138;2024-02-23T14:48:37;10.10;66.80
4223;DHT22;2125;51.436;14.138;2024-02-23T14:51:06;10.00;67.40
4223;DHT22;2125;51.436;14.138;2024-02-23T14:53:34;10.00;68.30
4223;DHT22;2125;51.436;14.138;2024-02-23T14:56:01;9.90;69.70
4223;DHT22;2125;51.436;14.138;2024-02-23T14:58:28;9.90;70.30
4223;DHT22;2125;51.436;14.138;2024-02-23T15:00:54;9.90;68.40
4223;DHT22;2125;51.436;14.138;2024-02-23T15:03:21;10.00;68.10
